Time;durP1;ratioP1;P1;durP2;ratioP2;P2;SDS_P1;SDS_P2;PMS_P1;PMS_P2;Temp;Humidity;BMP_temperature;BMP_pressure;BME280_temperature;BME280_humidity;BME280_pressure;Samples;Min_cycle;Max_cycle;Signal;HPM_P1;HPM_P2
2023/09/10 00:02:11;;;;;;;;;;;;;;;15.93;79.90;101661.64;105969;1271;125236;-82
2023/09/10 00:04:37;;;;;;;;;;;;;;;15.92;80.06;101657.38;105865;1268;72767;-84
2023/09/10 00:07:04;;;;;;;;;;;;;;;15.92;80.00;101658.26;105863;1267;125711;-84
2023/09/10 00:09:31;;;;;;;;;;;;;;;15.92;80.08;101653.48;105963;1268;61291;-84
2023/09/10 00:11:57;;;;;;;;;;;;;;;15.90;79.96;101653.25;105834;1268;74945;-85
2023/09/10 00:14:24;;;;;;;;;;;;;;;15.88;79.98;101653.41;105938;1267;124990;-83
2023/09/10 00:16:50;;;;;;;;;;;;;;;15.86;79.92;101653.02;105969;1268;72764;-85
2023/09/10 00:19:17;;;;;;;;;;;;;;;15.85;80.07;101648.05;105900;1268;125193;-83
2023/09/10 00:21:43;;;;;;;;;;;;;;;15.83;80.05;101649.42;105975;1268;61287;-84
2023/09/10 00:24:11;;;;;;;;;;;;;;;15.81;80.09;101649.75;105907;1268;61409;-84
2023/09/10 00:26:37;;;;;;;;;;;;;;;15.80;80.11;101646.52;106019;1267;125272;-84
2023/09/10 00:29:04;;;;;;;;;;;;;;;15.77;80.19;101645.77;106157;1268;71840;-87
2023/09/10 00:31:34;;;;;;;;;;;;;;;15.75;80.20;101646.62;105793;1270;124951;-86
2023/09/10 00:34:02;;;;;;;;;;;;;;;15.71;80.26;101642.30;105750;1268;61385;-86
2023/09/10 00:36:28;;;;;;;;;;;;;;;15.71;80.26;101647.05;105785;1267;125681;-85
2023/09/10 00:38:55;;;;;;;;;;;;;;;15.68;80.18;101642.23;105841;1268;64940;-86
2023/09/10 00:41:22;;;;;;;;;;;;;;;15.65;80.25;101643.05;105748;1267;72687;-87
2023/09/10 00:43:49;;;;;;;;;;;;;;;15.63;80.17;101640.17;105606;1267;125584;-84
2023/09/10 00:46:15;;;;;;;;;;;;;;;15.61;80.22;101639.44;105764;1276;61223;-84
2023/09/10 00:48:42;;;;;;;;;;;;;;;15.61;80.22;101640.30;105845;1268;125783;-84
2023/09/10 00:51:08;;;;;;;;;;;;;;;15.57;80.06;101636.02;105729;1268;61212;-84
2023/09/10 00:53:35;;;;;;;;;;;;;;;15.52;80.09;101628.48;105871;1268;61275;-83
2023/09/10 00:56:02;;;;;;;;;;;;;;;15.49;80.08;101630.89;105709;1271;125140;-83
2023/09/10 00:58:28;;;;;;;;;;;;;;;15.46;80.09;101631.38;105934;1268;59714;-84
2023/09/10 01:00:55;;;;;;;;;;;;;;;15.43;80.12;101631.14;105702;1267;126796;-83
2023/09/10 01:03:21;;;;;;;;;;;;;;;15.40;80.05;101631.27;105795;1268;66319;-84
2023/09/10 01:05:48;;;;;;;;;;;;;;;15.37;80.00;101633.67;105859;1268;70417;-84
2023/09/10 01:08:14;;;;;;;;;;;;;;;15.34;80.07;101636.26;105791;1267;125012;-85
2023/09/10 01:11:00;;;;;;;;;;;;;;;15.29;79.97;101635.29;105827;1267;61294;-85
2023/09/10 01:13:38;;;;;;;;;;;;;;;15.26;80.05;101633.46;105734;1271;124038;-86
2023/09/10 01:16:06;;;;;;;;;;;;;;;15.24;80.07;101630.42;105805;1268;66591;-85
2023/09/10 01:18:51;;;;;;;;;;;;;;;15.22;80.02;101630.73;105794;1267;125147;-84
2023/09/10 01:21:20;;;;;;;;;;;;;;;15.19;80.03;101631.20;105857;1271;61225;-87
2023/09/10 01:24:02;;;;;;;;;;;;;;;15.19;80.06;101634.20;105819;1268;61275;-85
2023/09/10 01:26:29;;;;;;;;;;;;;;;15.19;80.09;101629.77;105692;1271;125029;-85
2023/09/10 01:28:55;;;;;;;;;;;;;;;15.15;79.94;101628.48;105839;1270;59578;-85
2023/09/10 01:31:22;;;;;;;;;;;;;;;15.12;79.98;101625.05;105715;1267;126008;-85
2023/09/10 01:33:50;;;;;;;;;;;;;;;15.09;79.97;101621.98;105860;1268;61205;-84
2023/09/10 01:36:21;;;;;;;;;;;;;;;15.08;80.01;101624.07;105711;1271;125313;-85
2023/09/10 01:38:50;;;;;;;;;;;;;;;15.07;80.12;101620.87;105889;1270;73580;-84
2023/09/10 01:41:17;;;;;;;;;;;;;;;15.04;80.23;101619.59;106038;1268;66471;-84
2023/09/10 01:43:44;;;;;;;;;;;;;;;15.02;80.07;101622.18;105829;1271;125427;-84
2023/09/10 01:46:10;;;;;;;;;;;;;;;14.98;79.94;101620.34;105950;1268;61744;-83
2023/09/10 01:48:37;;;;;;;;;;;;;;;14.93;80.05;101623.25;105752;1268;125259;-84
2023/09/10 01:51:03;;;;;;;;;;;;;;;14.89;79.94;101617.50;105790;1268;61285;-84
2023/09/10 01:53:30;;;;;;;;;;;;;;;14.86;80.16;101619.90;105917;1268;65539;-84
2023/09/10 01:55:56;;;;;;;;;;;;;;;14.85;80.18;101624.48;105733;1273;125060;-84
2023/09/10 01:58:23;;;;;;;;;;;;;;;14.85;80.30;101622.37;105928;1273;61274;-84
2023/09/10 02:00:50;;;;;;;;;;;;;;;14.84;80.23;101621.46;105856;1267;125444;-83
2023/09/10 02:03:16;;;;;;;;;;;;;;;14.84;80.22;101624.27;105940;1270;61201;-83
2023/09/10 02:05:43;;;;;;;;;;;;;;;14.83;80.31;101625.67;105699;1272;64663;-84
2023/09/10 02:08:09;;;;;;;;;;;;;;;14.82;80.32;101627.96;105512;1268;126996;-83
2023/09/10 02:10:36;;;;;;;;;;;;;;;14.80;80.39;101619.08;106048;1267;61313;-84
2023/09/10 02:13:03;;;;;;;;;;;;;;;14.80;80.43;101623.67;105909;1268;125066;-84
2023/09/10 02:15:29;;;;;;;;;;;;;;;14.77;80.41;101619.38;105851;1268;73133;-84
2023/09/10 02:17:56;;;;;;;;;;;;;;;14.76;80.44;101618.45;105892;1271;66454;-84
2023/09/10 02:20:23;;;;;;;;;;;;;;;14.75;80.47;101617.55;105762;1267;125196;-85
2023/09/10 02:22:49;;;;;;;;;;;;;;;14.73;80.55;101609.92;105938;1267;61192;-87
2023/09/10 02:25:16;;;;;;;;;;;;;;;14.71;80.60;101611.11;105927;1268;125094;-84
2023/09/10 02:27:45;;;;;;;;;;;;;;;14.71;80.62;101612.34;105972;1268;74656;-85
2023/09/10 02:30:12;;;;;;;;;;;;;;;14.71;80.72;101611.64;106032;1271;59828;-85
2023/09/10 02:32:39;;;;;;;;;;;;;;;14.71;80.80;101610.75;105927;1269;71239;-87
2023/09/10 02:35:05;;;;;;;;;;;;;;;14.70;80.58;101608.09;105917;1268;61316;-84
2023/09/10 02:37:32;;;;;;;;;;;;;;;14.68;80.69;101604.52;105850;1268;125090;-83
2023/09/10 02:39:59;;;;;;;;;;;;;;;14.67;80.75;101603.61;105981;1270;73422;-83
2023/09/10 02:42:25;;;;;;;;;;;;;;;14.66;80.64;101607.65;105944;1271;125911;-83
2023/09/10 02:44:52;;;;;;;;;;;;;;;14.65;80.63;101605.85;105844;1268;61294;-83
2023/09/10 02:47:18;;;;;;;;;;;;;;;14.64;80.69;101604.79;105962;1268;61406;-83
2023/09/10 02:49:45;;;;;;;;;;;;;;;14.63;80.54;101604.75;105854;1268;125648;-84
2023/09/10 02:52:11;;;;;;;;;;;;;;;14.62;80.62;101607.38;105921;1270;61275;-84
2023/09/10 02:54:38;;;;;;;;;;;;;;;14.59;80.58;101607.33;105718;1268;125408;-84
2023/09/10 02:57:04;;;;;;;;;;;;;;;14.58;80.62;101606.24;105894;1268;61389;-84
2023/09/10 02:59:31;;;;;;;;;;;;;;;14.55;80.65;101603.14;105993;1268;61192;-84
2023/09/10 03:01:57;;;;;;;;;;;;;;;14.52;80.54;101601.13;105860;1268;126400;-83
2023/09/10 03:04:23;;;;;;;;;;;;;;;14.49;80.70;101597.34;106003;1268;59995;-84
2023/09/10 03:06:50;;;;;;;;;;;;;;;14.49;80.78;101597.51;105791;1270;125404;-85
2023/09/10 03:09:17;;;;;;;;;;;;;;;14.49;80.74;101598.40;106012;1268;61412;-85
2023/09/10 03:11:44;;;;;;;;;;;;;;;14.49;80.73;101600.70;105642;1270;61688;-85
2023/09/10 03:14:10;;;;;;;;;;;;;;;14.49;80.79;101598.91;105682;1273;125649;-85
2023/09/10 03:16:40;;;;;;;;;;;;;;;14.47;80.85;101600.30;105932;1270;72833;-84
2023/09/10 03:19:07;;;;;;;;;;;;;;;14.45;80.78;101600.45;105611;1268;125381;-84
2023/09/10 03:21:35;;;;;;;;;;;;;;;14.44;80.73;101602.52;105813;1271;61112;-84
2023/09/10 03:24:01;;;;;;;;;;;;;;;14.41;80.80;101596.46;105740;1273;61396;-85
2023/09/10 03:26:27;;;;;;;;;;;;;;;14.41;80.94;101599.10;105901;1268;124976;-85
2023/09/10 03:28:54;;;;;;;;;;;;;;;14.42;80.92;101603.02;105661;1268;61265;-86
2023/09/10 03:31:20;;;;;;;;;;;;;;;14.41;80.94;101596.28;105762;1270;125173;-86
2023/09/10 03:33:48;;;;;;;;;;;;;;;14.41;80.98;101594.52;105776;1268;61390;-84
2023/09/10 03:36:14;;;;;;;;;;;;;;;14.40;81.00;101593.27;105806;1268;124735;-85
2023/09/10 03:38:41;;;;;;;;;;;;;;;14.40;80.97;101594.65;106000;1269;61299;-89
2023/09/10 03:41:07;;;;;;;;;;;;;;;14.38;80.86;101594.27;106013;1270;73909;-84
2023/09/10 03:43:34;;;;;;;;;;;;;;;14.37;80.99;101591.42;105927;1267;125358;-85
2023/09/10 03:46:00;;;;;;;;;;;;;;;14.37;80.88;101594.23;106050;1268;61384;-86
2023/09/10 03:48:27;;;;;;;;;;;;;;;14.34;80.77;101588.86;105697;1272;125409;-87
2023/09/10 03:50:53;;;;;;;;;;;;;;;14.29;80.76;101585.92;105830;1268;61215;-84
2023/09/10 03:53:19;;;;;;;;;;;;;;;14.28;80.81;101588.38;105860;1270;61389;-84
2023/09/10 03:55:46;;;;;;;;;;;;;;;14.27;80.94;101587.14;105921;1268;125504;-85
2023/09/10 03:58:13;;;;;;;;;;;;;;;14.26;80.95;101588.17;105869;1273;61306;-84
2023/09/10 04:00:39;;;;;;;;;;;;;;;14.25;80.89;101586.90;105792;1267;125934;-85
2023/09/10 04:03:06;;;;;;;;;;;;;;;14.23;80.91;101586.51;105696;1268;61265;-83
2023/09/10 04:05:33;;;;;;;;;;;;;;;14.24;80.94;101587.40;106007;1270;74750;-83
2023/09/10 04:08:00;;;;;;;;;;;;;;;14.23;80.95;101586.13;105889;1267;127124;-83
2023/09/10 04:10:27;;;;;;;;;;;;;;;14.23;80.91;101588.61;105895;1270;59925;-84
2023/09/10 04:12:53;;;;;;;;;;;;;;;14.23;80.97;101585.61;105856;1271;125616;-83
2023/09/10 04:15:20;;;;;;;;;;;;;;;14.23;80.93;101584.02;105881;1268;61254;-84
2023/09/10 04:17:46;;;;;;;;;;;;;;;14.20;80.81;101584.87;105963;1270;61292;-84
2023/09/10 04:20:13;;;;;;;;;;;;;;;14.18;80.69;101584.47;105835;1270;126278;-86
2023/09/10 04:22:39;;;;;;;;;;;;;;;14.17;80.65;101580.88;105840;1273;72717;-86
2023/09/10 04:25:06;;;;;;;;;;;;;;;14.14;80.66;101578.89;105811;1270;125418;-84
2023/09/10 04:27:33;;;;;;;;;;;;;;;14.12;80.64;101579.90;105960;1267;61134;-85
2023/09/10 04:30:00;;;;;;;;;;;;;;;14.12;80.61;101581.14;105933;1271;75036;-84
2023/09/10 04:32:26;;;;;;;;;;;;;;;14.13;80.71;101578.16;105847;1267;125145;-85
2023/09/10 04:34:53;;;;;;;;;;;;;;;14.17;80.96;101580.55;105923;1267;60835;-85
2023/09/10 04:37:20;;;;;;;;;;;;;;;14.40;81.57;101582.30;105893;1267;125148;-84
2023/09/10 04:39:46;;;;;;;;;;;;;;;15.01;82.69;101577.98;105908;1268;61293;-83
2023/09/10 04:42:13;;;;;;;;;;;;;;;15.74;82.54;101575.27;105766;1270;125563;-83
2023/09/10 04:44:39;;;;;;;;;;;;;;;16.43;81.84;101574.77;105717;1267;59616;-85
2023/09/10 04:47:07;;;;;;;;;;;;;;;17.09;80.97;101569.06;105905;1267;72030;-85
2023/09/10 04:49:34;;;;;;;;;;;;;;;17.77;80.28;101568.51;105761;1267;125194;-86
2023/09/10 04:52:00;;;;;;;;;;;;;;;18.38;79.05;101566.65;105869;1267;59245;-87
2023/09/10 04:54:27;;;;;;;;;;;;;;;18.91;78.15;101564.62;105552;1268;125583;-87
2023/09/10 04:56:54;;;;;;;;;;;;;;;19.25;76.76;101562.41;105959;1273;66102;-88
2023/09/10 04:59:20;;;;;;;;;;;;;;;19.27;75.25;101559.92;105931;1272;71198;-87
2023/09/10 05:01:47;;;;;;;;;;;;;;;19.14;74.07;101564.88;105741;1268;125110;-90
2023/09/10 05:04:14;;;;;;;;;;;;;;;18.91;73.58;101572.46;106003;1267;61306;-89
2023/09/10 05:06:40;;;;;;;;;;;;;;;18.69;73.38;101570.38;105634;1272;125476;-88
2023/09/10 05:09:10;;;;;;;;;;;;;;;18.51;73.32;101569.22;105836;1267;65779;-89
2023/09/10 05:11:44;;;;;;;;;;;;;;;18.35;73.44;101574.10;105605;1267;71866;-89
2023/09/10 05:14:12;;;;;;;;;;;;;;;18.25;73.44;101568.88;105644;1273;125518;-89
2023/09/10 05:16:38;;;;;;;;;;;;;;;18.19;73.54;101576.13;105863;1268;61208;-93
2023/09/10 05:19:06;;;;;;;;;;;;;;;18.14;73.51;101570.41;105560;1276;125410;-91
2023/09/10 05:21:32;;;;;;;;;;;;;;;18.13;73.64;101570.94;105455;1271;66299;-90
2023/09/10 05:23:59;;;;;;;;;;;;;;;18.13;73.78;101573.08;105587;1276;72466;-90
2023/09/10 05:26:25;;;;;;;;;;;;;;;18.17;73.94;101575.94;105516;1270;125349;-93
2023/09/10 05:28:53;;;;;;;;;;;;;;;18.22;74.05;101575.61;105623;1268;61411;-90
2023/09/10 05:31:23;;;;;;;;;;;;;;;18.27;74.07;101575.11;105586;1267;125472;-91
2023/09/10 05:33:50;;;;;;;;;;;;;;;18.31;74.06;101574.43;105591;1273;65570;-91
2023/09/10 05:36:19;;;;;;;;;;;;;;;18.35;74.18;101575.70;105513;1268;125599;-90
2023/09/10 05:38:48;;;;;;;;;;;;;;;18.39;74.26;101571.64;105744;1272;61308;-89
2023/09/10 05:41:14;;;;;;;;;;;;;;;18.43;74.25;101565.61;105631;1273;61248;-89
2023/09/10 05:43:43;;;;;;;;;;;;;;;18.43;74.21;101560.66;105794;1268;125362;-88
2023/09/10 05:46:12;;;;;;;;;;;;;;;18.44;74.10;101565.27;105735;1268;64453;-89
2023/09/10 05:48:39;;;;;;;;;;;;;;;18.44;74.18;101567.04;105712;1272;124705;-92
2023/09/10 05:51:06;;;;;;;;;;;;;;;18.43;74.12;101569.52;105668;1273;61559;-89
2023/09/10 05:53:32;;;;;;;;;;;;;;;18.44;74.17;101565.80;105932;1273;61672;-90
2023/09/10 05:56:01;;;;;;;;;;;;;;;18.46;74.20;101565.81;105469;1274;124649;-89
2023/09/10 05:58:28;;;;;;;;;;;;;;;18.50;74.34;101561.57;105635;1275;66074;-89
2023/09/10 06:00:55;;;;;;;;;;;;;;;18.53;74.32;101559.64;105685;1273;124580;-90
2023/09/10 06:03:22;;;;;;;;;;;;;;;18.54;74.29;101563.55;105834;1270;59380;-89
2023/09/10 06:05:48;;;;;;;;;;;;;;;18.56;74.24;101559.29;105756;1271;61457;-93
2023/09/10 06:08:15;;;;;;;;;;;;;;;18.53;74.29;101552.52;105614;1267;124448;-91
2023/09/10 06:10:43;;;;;;;;;;;;;;;18.58;74.42;101554.85;105842;1268;66497;-91
2023/09/10 06:13:12;;;;;;;;;;;;;;;18.61;74.50;101555.05;105773;1272;124392;-91
2023/09/10 06:15:44;;;;;;;;;;;;;;;18.63;74.49;101555.94;105838;1267;61383;-92
2023/09/10 06:18:11;;;;;;;;;;;;;;;18.66;74.59;101556.49;105767;1267;61444;-89
2023/09/10 06:20:38;;;;;;;;;;;;;;;18.71;74.63;101553.67;105621;1267;123286;-89
2023/09/10 06:23:05;;;;;;;;;;;;;;;18.75;74.64;101551.38;105267;1268;66386;-90
2023/09/10 06:25:32;;;;;;;;;;;;;;;18.79;74.62;101554.78;105781;1267;124484;-90
2023/09/10 06:27:59;;;;;;;;;;;;;;;18.85;74.69;101551.63;105629;1275;61390;-90
2023/09/10 06:30:25;;;;;;;;;;;;;;;18.91;74.74;101552.72;105704;1267;124722;-90
2023/09/10 06:32:52;;;;;;;;;;;;;;;18.96;74.77;101550.23;105710;1270;74801;-90
2023/09/10 06:35:18;;;;;;;;;;;;;;;18.98;74.86;101548.10;105811;1273;66228;-89
2023/09/10 06:37:47;;;;;;;;;;;;;;;19.03;74.98;101548.66;105797;1273;124981;-89
2023/09/10 06:40:15;;;;;;;;;;;;;;;19.11;74.97;101548.50;105691;1270;61751;-89
2023/09/10 06:42:41;;;;;;;;;;;;;;;19.16;75.08;101544.79;105570;1269;125727;-90
2023/09/10 06:45:08;;;;;;;;;;;;;;;19.25;75.13;101546.58;105866;1271;73843;-90
2023/09/10 06:47:35;;;;;;;;;;;;;;;19.32;75.10;101542.85;105839;1273;64732;-88
2023/09/10 06:50:02;;;;;;;;;;;;;;;19.41;75.27;101538.59;105577;1267;125275;-88
2023/09/10 06:52:29;;;;;;;;;;;;;;;19.54;75.35;101538.25;105714;1273;61378;-90
2023/09/10 06:54:55;;;;;;;;;;;;;;;19.66;75.43;101539.69;105515;1274;125610;-86
2023/09/10 06:57:22;;;;;;;;;;;;;;;19.79;75.22;101540.59;105797;1267;62071;-84
2023/09/10 06:59:48;;;;;;;;;;;;;;;19.91;75.16;101544.33;105965;1267;61333;-86
2023/09/10 07:02:15;;;;;;;;;;;;;;;20.04;75.08;101543.61;105907;1267;125114;-87
2023/09/10 07:04:47;;;;;;;;;;;;;;;20.17;75.06;101538.23;105784;1272;61334;-87
2023/09/10 07:07:14;;;;;;;;;;;;;;;20.30;74.85;101542.30;105682;1273;125393;-88
2023/09/10 07:09:41;;;;;;;;;;;;;;;20.41;74.84;101538.71;105586;1267;74572;-87
2023/09/10 07:12:07;;;;;;;;;;;;;;;20.53;74.70;101537.59;105910;1272;59700;-88
2023/09/10 07:14:34;;;;;;;;;;;;;;;20.64;74.66;101535.27;105730;1267;125023;-86
2023/09/10 07:17:00;;;;;;;;;;;;;;;20.74;74.55;101540.39;105758;1270;61134;-87
2023/09/10 07:19:29;;;;;;;;;;;;;;;20.85;74.36;101537.48;105960;1267;125002;-87
2023/09/10 07:21:57;;;;;;;;;;;;;;;20.95;74.21;101540.28;105974;1268;73360;-85
2023/09/10 07:24:23;;;;;;;;;;;;;;;21.05;74.13;101544.70;105743;1267;125319;-89
2023/09/10 07:26:50;;;;;;;;;;;;;;;21.15;73.94;101546.06;105957;1272;72694;-90
2023/09/10 07:29:16;;;;;;;;;;;;;;;21.25;73.86;101548.69;105735;1274;61239;-89
2023/09/10 07:31:43;;;;;;;;;;;;;;;21.34;73.76;101549.33;105850;1267;125712;-90
2023/09/10 07:34:13;;;;;;;;;;;;;;;21.43;73.52;101549.83;105733;1268;74489;-90
2023/09/10 07:36:44;;;;;;;;;;;;;;;21.51;73.40;101546.38;105915;1270;125353;-90
2023/09/10 07:39:11;;;;;;;;;;;;;;;21.59;73.08;101544.73;105912;1267;72736;-89
2023/09/10 07:41:42;;;;;;;;;;;;;;;21.62;72.91;101543.62;106003;1267;59874;-82
2023/09/10 07:44:08;;;;;;;;;;;;;;;21.68;72.78;101547.33;105670;1271;305464;-79
2023/09/10 07:46:35;;;;;;;;;;;;;;;21.75;72.46;101542.09;105851;1267;74541;-83
2023/09/10 07:49:01;;;;;;;;;;;;;;;21.79;72.48;101540.45;105944;1270;124753;-86
2023/09/10 07:51:28;;;;;;;;;;;;;;;21.85;72.31;101538.77;105773;1273;72727;-82
2023/09/10 07:53:58;;;;;;;;;;;;;;;21.89;72.24;101537.48;105873;1268;61288;-81
2023/09/10 07:56:24;;;;;;;;;;;;;;;21.93;72.02;101537.09;105846;1267;125777;-82
2023/09/10 07:58:51;;;;;;;;;;;;;;;21.97;71.90;101535.81;105869;1267;74406;-83
2023/09/10 08:01:18;;;;;;;;;;;;;;;21.99;71.84;101537.22;105625;1271;124528;-83
2023/09/10 08:03:44;;;;;;;;;;;;;;;22.04;71.88;101534.32;105952;1267;72748;-84
2023/09/10 08:06:11;;;;;;;;;;;;;;;22.10;71.71;101531.76;106007;1267;61351;-85
2023/09/10 08:08:38;;;;;;;;;;;;;;;22.18;71.82;101527.02;105834;1267;125503;-83
2023/09/10 08:11:11;;;;;;;;;;;;;;;22.23;71.38;101528.56;105921;1267;78188;-82
2023/09/10 08:13:38;;;;;;;;;;;;;;;22.28;71.30;101526.59;105984;1267;126194;-81
2023/09/10 08:16:05;;;;;;;;;;;;;;;22.38;71.51;101526.66;105989;1272;71477;-79
2023/09/10 08:18:32;;;;;;;;;;;;;;;22.47;71.17;101525.84;105870;1273;125676;-80
2023/09/10 08:20:59;;;;;;;;;;;;;;;22.57;71.32;101524.81;105874;1273;62447;-81
2023/09/10 08:23:25;;;;;;;;;;;;;;;22.66;71.22;101524.88;105980;1267;74829;-81
2023/09/10 08:25:52;;;;;;;;;;;;;;;22.76;71.13;101522.61;105889;1267;124978;-82
2023/09/10 08:28:18;;;;;;;;;;;;;;;22.87;70.88;101523.34;105779;1267;72806;-81
2023/09/10 08:30:45;;;;;;;;;;;;;;;22.97;70.70;101519.45;105331;1267;125215;-82
2023/09/10 08:33:11;;;;;;;;;;;;;;;23.05;70.50;101519.38;105985;1267;59230;-81
2023/09/10 08:35:45;;;;;;;;;;;;;;;23.14;70.17;101521.39;106096;1267;74687;-81
2023/09/10 08:38:12;;;;;;;;;;;;;;;23.22;70.00;101521.09;105811;1267;124412;-82
2023/09/10 08:40:53;;;;;;;;;;;;;;;23.30;69.93;101516.67;105950;1268;72495;-83
2023/09/10 08:43:21;;;;;;;;;;;;;;;23.39;69.63;101517.77;105892;1271;124843;-83
2023/09/10 08:45:48;;;;;;;;;;;;;;;23.48;69.48;101517.45;105912;1267;59786;-81
2023/09/10 08:48:15;;;;;;;;;;;;;;;23.57;69.28;101514.78;105818;1273;73172;-83
2023/09/10 08:50:42;;;;;;;;;;;;;;;23.65;69.12;101511.80;105982;1271;66450;-81
2023/09/10 08:53:11;;;;;;;;;;;;;;;23.72;68.83;101512.56;105953;1270;72786;-81
2023/09/10 08:55:38;;;;;;;;;;;;;;;23.77;68.40;101510.52;106191;1267;124895;-80
2023/09/10 08:58:04;;;;;;;;;;;;;;;23.81;68.12;101508.50;105974;1267;61330;-83
2023/09/10 09:00:31;;;;;;;;;;;;;;;23.86;67.92;101505.73;105947;1267;125434;-84
2023/09/10 09:02:58;;;;;;;;;;;;;;;23.91;68.05;101504.21;105915;1267;61402;-85
2023/09/10 09:05:25;;;;;;;;;;;;;;;23.95;67.85;101501.96;106024;1267;71444;-85
2023/09/10 09:07:54;;;;;;;;;;;;;;;23.99;67.61;101500.09;105680;1267;125936;-85
2023/09/10 09:10:24;;;;;;;;;;;;;;;24.05;67.56;101497.84;106041;1272;61183;-85
2023/09/10 09:12:52;;;;;;;;;;;;;;;24.12;67.47;101498.23;105692;1267;125508;-86
2023/09/10 09:15:19;;;;;;;;;;;;;;;24.19;67.40;101498.64;105956;1267;64851;-82
2023/09/10 09:17:46;;;;;;;;;;;;;;;24.25;67.13;101499.77;105905;1267;71488;-81
2023/09/10 09:20:17;;;;;;;;;;;;;;;24.32;66.79;101502.88;106003;1273;125058;-81
2023/09/10 09:22:45;;;;;;;;;;;;;;;24.39;66.68;101501.65;105838;1273;64420;-84
2023/09/10 09:25:19;;;;;;;;;;;;;;;24.48;66.80;101503.09;105815;1270;125123;-84
2023/09/10 09:27:45;;;;;;;;;;;;;;;24.57;66.50;101496.64;105875;1267;65026;-82
2023/09/10 09:30:12;;;;;;;;;;;;;;;24.66;66.50;101499.48;105807;1270;72362;-83
2023/09/10 09:32:39;;;;;;;;;;;;;;;24.75;66.36;101496.78;106046;1270;124780;-82
2023/09/10 09:35:09;;;;;;;;;;;;;;;24.84;66.07;101494.98;106056;1267;61300;-82
2023/09/10 09:37:35;;;;;;;;;;;;;;;24.91;65.96;101492.67;105963;1267;124571;-83
2023/09/10 09:40:21;;;;;;;;;;;;;;;24.98;65.55;101488.02;105971;1273;66390;-83
2023/09/10 09:42:48;;;;;;;;;;;;;;;25.03;65.54;101483.77;106006;1267;124733;-83
2023/09/10 09:45:19;;;;;;;;;;;;;;;25.13;65.24;101484.43;105834;1270;61366;-83
2023/09/10 09:47:48;;;;;;;;;;;;;;;25.20;65.23;101482.13;105726;1267;60192;-84
2023/09/10 09:50:21;;;;;;;;;;;;;;;25.26;64.90;101483.09;105983;1268;124804;-84
2023/09/10 09:52:52;;;;;;;;;;;;;;;25.29;64.54;101479.95;105965;1267;66324;-84
2023/09/10 09:55:18;;;;;;;;;;;;;;;25.32;64.46;101479.15;105874;1267;124461;-85
2023/09/10 09:57:45;;;;;;;;;;;;;;;25.36;64.31;101474.94;105992;1267;61261;-83
2023/09/10 10:00:12;;;;;;;;;;;;;;;25.39;63.99;101478.95;105960;1267;61214;-80
2023/09/10 10:02:39;;;;;;;;;;;;;;;25.45;64.15;101477.58;105951;1267;124139;-83
2023/09/10 10:05:06;;;;;;;;;;;;;;;25.49;64.06;101472.98;106123;1267;66298;-82
2023/09/10 10:07:34;;;;;;;;;;;;;;;25.52;63.94;101474.16;105874;1270;124328;-81
2023/09/10 10:10:00;;;;;;;;;;;;;;;25.57;63.78;101471.35;105891;1268;60398;-82
2023/09/10 10:12:27;;;;;;;;;;;;;;;25.61;63.78;101472.48;105869;1268;124592;-81
2023/09/10 10:14:54;;;;;;;;;;;;;;;25.66;63.60;101472.20;106027;1269;74470;-82
2023/09/10 10:17:21;;;;;;;;;;;;;;;25.69;63.19;101468.85;106102;1270;66330;-81
2023/09/10 10:19:51;;;;;;;;;;;;;;;25.72;63.05;101468.78;105753;1267;124660;-81
2023/09/10 10:22:20;;;;;;;;;;;;;;;25.76;62.71;101462.94;105805;1270;61445;-81
2023/09/10 10:24:47;;;;;;;;;;;;;;;25.80;62.71;101465.31;106059;1267;124826;-81
2023/09/10 10:27:14;;;;;;;;;;;;;;;25.86;62.39;101459.77;106314;1271;74648;-80
2023/09/10 10:29:40;;;;;;;;;;;;;;;25.91;62.21;101460.55;106313;1267;66243;-81
2023/09/10 10:32:08;;;;;;;;;;;;;;;25.96;61.97;101456.13;106277;1267;125002;-82
2023/09/10 10:34:38;;;;;;;;;;;;;;;26.01;61.67;101458.86;105950;1270;61400;-82
2023/09/10 10:37:15;;;;;;;;;;;;;;;26.07;61.60;101453.47;105880;1267;124271;-81
2023/09/10 10:39:46;;;;;;;;;;;;;;;26.11;60.84;101454.08;106102;1267;74422;-81
2023/09/10 10:42:14;;;;;;;;;;;;;;;26.12;60.94;101449.20;105914;1267;66508;-81
2023/09/10 10:44:40;;;;;;;;;;;;;;;26.17;60.88;101449.58;106023;1267;74105;-81
2023/09/10 10:47:20;;;;;;;;;;;;;;;26.22;60.68;101453.58;105785;1267;59987;-81
2023/09/10 10:49:56;;;;;;;;;;;;;;;26.26;60.45;101450.05;105841;1268;124504;-82
2023/09/10 10:52:24;;;;;;;;;;;;;;;26.28;59.59;101449.30;105791;1267;74227;-81
2023/09/10 10:54:57;;;;;;;;;;;;;;;26.28;59.19;101446.22;105821;1267;124440;-81
2023/09/10 10:57:24;;;;;;;;;;;;;;;26.28;58.86;101448.91;105899;1271;75043;-80
2023/09/10 10:59:52;;;;;;;;;;;;;;;26.30;58.30;101447.96;105943;1267;61278;-81
2023/09/10 11:02:24;;;;;;;;;;;;;;;26.30;58.08;101447.61;105681;1267;124465;-81
2023/09/10 11:04:54;;;;;;;;;;;;;;;26.30;57.74;101447.59;105605;1267;77073;-81
2023/09/10 11:07:22;;;;;;;;;;;;;;;26.33;57.78;101445.53;105832;1268;124348;-81
2023/09/10 11:09:49;;;;;;;;;;;;;;;26.35;57.43;101448.71;105934;1267;71153;-82
2023/09/10 11:12:26;;;;;;;;;;;;;;;26.34;57.20;101443.86;105929;1268;124988;-80
2023/09/10 11:15:05;;;;;;;;;;;;;;;26.41;57.25;101447.80;105978;1267;59983;-81
2023/09/10 11:17:32;;;;;;;;;;;;;;;26.43;56.84;101443.60;105791;1267;64810;-81
2023/09/10 11:19:59;;;;;;;;;;;;;;;26.43;56.54;101438.73;105842;1267;124809;-80
2023/09/10 11:22:26;;;;;;;;;;;;;;;26.45;56.36;101441.95;106114;1271;71206;-80
2023/09/10 11:24:59;;;;;;;;;;;;;;;26.47;56.39;101444.02;105705;1271;124656;-81
2023/09/10 11:27:27;;;;;;;;;;;;;;;26.51;56.39;101441.77;105824;1267;61388;-80
2023/09/10 11:30:06;;;;;;;;;;;;;;;26.55;56.54;101439.44;105821;1267;73645;-81
2023/09/10 11:32:33;;;;;;;;;;;;;;;26.61;56.56;101436.42;105836;1271;124444;-81
2023/09/10 11:35:17;;;;;;;;;;;;;;;26.66;56.49;101437.35;105783;1273;72794;-81
2023/09/10 11:37:47;;;;;;;;;;;;;;;26.72;56.15;101434.09;105726;1273;124648;-82
2023/09/10 11:40:13;;;;;;;;;;;;;;;26.76;56.13;101433.26;105739;1267;59296;-81
2023/09/10 11:42:44;;;;;;;;;;;;;;;26.79;55.97;101430.12;106029;1267;124691;-80
2023/09/10 11:45:10;;;;;;;;;;;;;;;26.81;55.72;101426.98;106174;1271;61213;-80
2023/09/10 11:47:40;;;;;;;;;;;;;;;26.84;55.51;101424.19;105961;1267;61482;-82
2023/09/10 11:50:07;;;;;;;;;;;;;;;26.87;55.34;101422.29;105946;1267;124496;-87
2023/09/10 11:52:34;;;;;;;;;;;;;;;26.86;54.57;101415.48;106026;1267;61128;-84
2023/09/10 11:55:01;;;;;;;;;;;;;;;26.84;54.47;101418.41;105638;1267;124663;-85
2023/09/10 11:57:28;;;;;;;;;;;;;;;26.86;54.74;101415.46;105883;1273;66051;-84
2023/09/10 11:59:54;;;;;;;;;;;;;;;26.91;55.04;101413.52;105957;1267;72113;-85
2023/09/10 12:02:21;;;;;;;;;;;;;;;26.97;54.92;101416.21;105669;1268;124692;-85
2023/09/10 12:04:47;;;;;;;;;;;;;;;27.00;54.70;101415.91;105906;1267;61304;-84
2023/09/10 12:07:14;;;;;;;;;;;;;;;27.01;54.23;101418.05;106008;1267;124974;-80
2023/09/10 12:09:41;;;;;;;;;;;;;;;27.01;54.00;101416.07;105993;1267;66272;-82
2023/09/10 12:12:09;;;;;;;;;;;;;;;27.02;53.95;101415.67;105973;1271;73111;-81
2023/09/10 12:14:42;;;;;;;;;;;;;;;27.03;53.78;101411.49;105923;1267;124274;-80
2023/09/10 12:20:44;;;;;;;;;;;;;;;27.04;53.72;101404.27;105677;1268;124566;-79
2023/09/10 12:23:11;;;;;;;;;;;;;;;27.08;53.53;101403.39;105585;1267;64479;-81
2023/09/10 12:25:38;;;;;;;;;;;;;;;27.10;53.24;101401.16;105901;1273;124564;-86
2023/09/10 12:28:09;;;;;;;;;;;;;;;27.12;53.40;101398.94;106149;1267;61341;-90
2023/09/10 12:30:40;;;;;;;;;;;;;;;27.14;53.32;101393.66;105899;1267;125161;-85